AZU6039 SBPA-SBSP
Flight info
| Callsign | AZU6039 |
|---|---|
| Flight time | 1h 9m |
| Altitude | 37000 |
| Route | ANLER UM540 ANISE |
| Aircraft | A20N/M-SDE2E3FGHIRWXY/LB1 |
Departure
| Time | 2026-05-06 01:10 |
|---|---|
| Airport | Porto Alegre-Salgado Filho International Airport (SBPA) |
Arrival
| Time | 2026-05-06 02:20 |
|---|---|
| Airport | Congonhas–Deputado Freitas Nobre Airport (SBSP) |
| Time | Latitude | Longitude | Altitude | Speed | Heading |
|---|---|---|---|---|---|
| 2026-05-06 00:48 | -29.99120 | -51.17348 | 20 ft | 0 kts | 1° |
| 2026-05-06 01:03 | -29.99128 | -51.17348 | 20 ft | 2 kts | 1° |
| 2026-05-06 01:03 | -29.99145 | -51.17348 | 22 ft | 2 kts | 1° |
| 2026-05-06 01:04 | -29.99162 | -51.17349 | 22 ft | 2 kts | 336° |
| 2026-05-06 01:04 | -29.99173 | -51.17337 | 21 ft | 2 kts | 295° |
| 2026-05-06 01:04 | -29.99181 | -51.17320 | 22 ft | 2 kts | 291° |
| 2026-05-06 01:04 | -29.99182 | -51.17317 | 22 ft | 0 kts | 277° |
| 2026-05-06 01:05 | -29.99182 | -51.17334 | 20 ft | 4 kts | 271° |
| 2026-05-06 01:06 | -29.99188 | -51.17372 | 21 ft | 4 kts | 248° |
| 2026-05-06 01:06 | -29.99208 | -51.17388 | 20 ft | 3 kts | 193° |
| 2026-05-06 01:06 | -29.99252 | -51.17402 | 20 ft | 10 kts | 214° |
| 2026-05-06 01:06 | -29.99265 | -51.17491 | 20 ft | 11 kts | 270° |
| 2026-05-06 01:07 | -29.99264 | -51.17577 | 20 ft | 10 kts | 271° |
| 2026-05-06 01:07 | -29.99264 | -51.17651 | 20 ft | 9 kts | 262° |
| 2026-05-06 01:07 | -29.99277 | -51.17713 | 21 ft | 7 kts | 251° |
| 2026-05-06 01:07 | -29.99285 | -51.17767 | 20 ft | 6 kts | 269° |
| 2026-05-06 01:08 | -29.99284 | -51.17833 | 20 ft | 11 kts | 271° |
| 2026-05-06 01:08 | -29.99282 | -51.17927 | 20 ft | 13 kts | 270° |
| 2026-05-06 01:08 | -29.99296 | -51.18032 | 20 ft | 14 kts | 253° |
| 2026-05-06 01:08 | -29.99330 | -51.18135 | 20 ft | 11 kts | 249° |
| 2026-05-06 01:09 | -29.99362 | -51.18221 | 20 ft | 12 kts | 235° |
| 2026-05-06 01:09 | -29.99419 | -51.18269 | 19 ft | 8 kts | 204° |
| 2026-05-06 01:09 | -29.99442 | -51.18237 | 19 ft | 5 kts | 101° |
| 2026-05-06 01:09 | -29.99442 | -51.18151 | 20 ft | 34 kts | 90° |
| 2026-05-06 01:10 | -29.99454 | -51.17594 | 20 ft | 101 kts | 91° |
| 2026-05-06 01:10 | -29.99473 | -51.16582 | 22 ft | 149 kts | 91° |
| 2026-05-06 01:10 | -29.99493 | -51.15370 | 544 ft | 150 kts | 91° |
| 2026-05-06 01:10 | -29.99525 | -51.14106 | 925 ft | 167 kts | 91° |
| 2026-05-06 01:11 | -29.99563 | -51.12690 | 1213 ft | 187 kts | 90° |
| 2026-05-06 01:11 | -29.99590 | -51.11095 | 1417 ft | 211 kts | 89° |
| 2026-05-06 01:11 | -29.99590 | -51.09306 | 1691 ft | 234 kts | 82° |
| 2026-05-06 01:11 | -29.98997 | -51.07526 | 2138 ft | 245 kts | 51° |
| 2026-05-06 01:12 | -29.97664 | -51.06308 | 2783 ft | 248 kts | 27° |
| 2026-05-06 01:12 | -29.96172 | -51.05285 | 3499 ft | 251 kts | 32° |
| 2026-05-06 01:12 | -29.94721 | -51.04133 | 4195 ft | 255 kts | 33° |
| 2026-05-06 01:12 | -29.93312 | -51.02855 | 4876 ft | 261 kts | 40° |
| 2026-05-06 01:13 | -29.91947 | -51.01456 | 5557 ft | 265 kts | 39° |
| 2026-05-06 01:13 | -29.90542 | -51.00062 | 6264 ft | 268 kts | 38° |
| 2026-05-06 01:13 | -29.89107 | -50.98663 | 6933 ft | 272 kts | 37° |
| 2026-05-06 01:13 | -29.87647 | -50.97254 | 7586 ft | 276 kts | 37° |
| 2026-05-06 01:14 | -29.84660 | -50.94384 | 8904 ft | 283 kts | 37° |
| 2026-05-06 01:14 | -29.83136 | -50.92925 | 9564 ft | 287 kts | 37° |
| 2026-05-06 01:14 | -29.81594 | -50.91452 | 10171 ft | 291 kts | 37° |
| 2026-05-06 01:15 | -29.80031 | -50.89958 | 10779 ft | 293 kts | 36° |
| 2026-05-06 01:15 | -29.78456 | -50.88450 | 11363 ft | 296 kts | 36° |
| 2026-05-06 01:15 | -29.76868 | -50.86930 | 11950 ft | 298 kts | 36° |
| 2026-05-06 01:15 | -29.75266 | -50.85398 | 12560 ft | 300 kts | 36° |
| 2026-05-06 01:16 | -29.73660 | -50.83863 | 13135 ft | 302 kts | 36° |
| 2026-05-06 01:16 | -29.72037 | -50.82316 | 13705 ft | 304 kts | 36° |
| 2026-05-06 01:16 | -29.70426 | -50.80777 | 14231 ft | 306 kts | 36° |
| 2026-05-06 01:16 | -29.68781 | -50.79203 | 14708 ft | 309 kts | 36° |
| 2026-05-06 01:17 | -29.67120 | -50.77618 | 15206 ft | 312 kts | 36° |
| 2026-05-06 01:17 | -29.65442 | -50.76020 | 15663 ft | 315 kts | 35° |
| 2026-05-06 01:17 | -29.63748 | -50.74408 | 16132 ft | 318 kts | 35° |
| 2026-05-06 01:17 | -29.62036 | -50.72782 | 16605 ft | 321 kts | 35° |
| 2026-05-06 01:18 | -29.60311 | -50.71141 | 17079 ft | 323 kts | 35° |
| 2026-05-06 01:18 | -29.58569 | -50.69485 | 17537 ft | 327 kts | 35° |
| 2026-05-06 01:18 | -29.56775 | -50.67785 | 17712 ft | 343 kts | 35° |
| 2026-05-06 01:18 | -29.54890 | -50.65999 | 17850 ft | 360 kts | 35° |
| 2026-05-06 01:19 | -29.52906 | -50.64118 | 18034 ft | 378 kts | 36° |
| 2026-05-06 01:19 | -29.51557 | -50.62838 | 18383 ft | 383 kts | 36° |
| 2026-05-06 01:19 | -29.48778 | -50.60191 | 19165 ft | 392 kts | 36° |
| 2026-05-06 01:19 | -29.46663 | -50.58182 | 19766 ft | 398 kts | 36° |
| 2026-05-06 01:20 | -29.45250 | -50.56840 | 20166 ft | 401 kts | 36° |
| 2026-05-06 01:20 | -29.43087 | -50.54787 | 20781 ft | 406 kts | 36° |
| 2026-05-06 01:20 | -29.40896 | -50.52708 | 21385 ft | 411 kts | 36° |
| 2026-05-06 01:20 | -29.38678 | -50.50604 | 21975 ft | 416 kts | 35° |
| 2026-05-06 01:21 | -29.36435 | -50.48479 | 22555 ft | 422 kts | 35° |
| 2026-05-06 01:21 | -29.34158 | -50.46327 | 23132 ft | 427 kts | 35° |
| 2026-05-06 01:21 | -29.31852 | -50.44151 | 23686 ft | 432 kts | 35° |
| 2026-05-06 01:21 | -29.29517 | -50.41952 | 24172 ft | 437 kts | 35° |
| 2026-05-06 01:22 | -29.27158 | -50.39734 | 24651 ft | 440 kts | 35° |
| 2026-05-06 01:22 | -29.24786 | -50.37498 | 25128 ft | 445 kts | 35° |
| 2026-05-06 01:22 | -29.22389 | -50.35235 | 25593 ft | 448 kts | 36° |
| 2026-05-06 01:22 | -29.19991 | -50.32970 | 26070 ft | 452 kts | 36° |
| 2026-05-06 01:23 | -29.17557 | -50.30673 | 26539 ft | 455 kts | 35° |
| 2026-05-06 01:23 | -29.15101 | -50.28363 | 27006 ft | 459 kts | 35° |
| 2026-05-06 01:23 | -29.12624 | -50.26037 | 27460 ft | 462 kts | 35° |
| 2026-05-06 01:23 | -29.10135 | -50.23700 | 27917 ft | 466 kts | 35° |
| 2026-05-06 01:24 | -29.07622 | -50.21340 | 28365 ft | 469 kts | 35° |
| 2026-05-06 01:24 | -29.05090 | -50.18965 | 28783 ft | 472 kts | 35° |
| 2026-05-06 01:24 | -29.02536 | -50.16576 | 29232 ft | 476 kts | 35° |
| 2026-05-06 01:24 | -28.99964 | -50.14171 | 29653 ft | 479 kts | 35° |
| 2026-05-06 01:25 | -28.97378 | -50.11755 | 30089 ft | 483 kts | 35° |
| 2026-05-06 01:25 | -28.94770 | -50.09318 | 30463 ft | 486 kts | 35° |
| 2026-05-06 01:25 | -28.92143 | -50.06863 | 30802 ft | 489 kts | 35° |
| 2026-05-06 01:25 | -28.89498 | -50.04395 | 31125 ft | 492 kts | 35° |
| 2026-05-06 01:26 | -28.86841 | -50.01920 | 31441 ft | 495 kts | 35° |
| 2026-05-06 01:26 | -28.84162 | -49.99424 | 31760 ft | 499 kts | 35° |
| 2026-05-06 01:26 | -28.81473 | -49.96916 | 32175 ft | 499 kts | 35° |
| 2026-05-06 01:26 | -28.78789 | -49.94407 | 32610 ft | 498 kts | 36° |
| 2026-05-06 01:27 | -28.76110 | -49.91906 | 32994 ft | 499 kts | 36° |
| 2026-05-06 01:27 | -28.73423 | -49.89405 | 33464 ft | 498 kts | 35° |
| 2026-05-06 01:27 | -28.70734 | -49.86908 | 33910 ft | 499 kts | 35° |
| 2026-05-06 01:27 | -28.68033 | -49.84427 | 34327 ft | 499 kts | 34° |
| 2026-05-06 01:28 | -28.65282 | -49.82019 | 34678 ft | 498 kts | 33° |
| 2026-05-06 01:28 | -28.62499 | -49.79680 | 35068 ft | 498 kts | 32° |
| 2026-05-06 01:28 | -28.59694 | -49.77371 | 35480 ft | 497 kts | 32° |
| 2026-05-06 01:28 | -28.56883 | -49.75071 | 35807 ft | 498 kts | 32° |
| 2026-05-06 01:29 | -28.54111 | -49.72790 | 36118 ft | 499 kts | 32° |
| 2026-05-06 01:29 | -28.51271 | -49.70429 | 36443 ft | 499 kts | 32° |
| 2026-05-06 01:29 | -28.48480 | -49.68088 | 36777 ft | 499 kts | 33° |
| 2026-05-06 01:29 | -28.45688 | -49.65733 | 37090 ft | 500 kts | 33° |
| 2026-05-06 01:30 | -28.42932 | -49.63406 | 37414 ft | 500 kts | 33° |
| 2026-05-06 01:30 | -28.40138 | -49.61054 | 37700 ft | 500 kts | 33° |
| 2026-05-06 01:30 | -28.37310 | -49.58680 | 38008 ft | 500 kts | 33° |
| 2026-05-06 01:30 | -28.34509 | -49.56332 | 38185 ft | 500 kts | 33° |
| 2026-05-06 01:31 | -28.28962 | -49.51685 | 38189 ft | 499 kts | 33° |
| 2026-05-06 01:31 | -28.23389 | -49.47035 | 38191 ft | 498 kts | 33° |
| 2026-05-06 01:32 | -28.17795 | -49.42377 | 38193 ft | 499 kts | 33° |
| 2026-05-06 01:32 | -28.15004 | -49.40052 | 38377 ft | 499 kts | 33° |
| 2026-05-06 01:32 | -28.12209 | -49.37725 | 38647 ft | 498 kts | 33° |
| 2026-05-06 01:33 | -28.09416 | -49.35400 | 38929 ft | 498 kts | 33° |
| 2026-05-06 01:33 | -28.06626 | -49.33067 | 39121 ft | 499 kts | 33° |
| 2026-05-06 01:33 | -28.01038 | -49.28324 | 39200 ft | 503 kts | 34° |
| 2026-05-06 01:34 | -27.95460 | -49.23555 | 39204 ft | 502 kts | 34° |
| 2026-05-06 01:34 | -27.89874 | -49.18803 | 39203 ft | 504 kts | 34° |
| 2026-05-06 01:35 | -27.84200 | -49.14065 | 39208 ft | 515 kts | 33° |
| 2026-05-06 01:35 | -27.78282 | -49.09346 | 39206 ft | 518 kts | 32° |
| 2026-05-06 01:36 | -27.72420 | -49.04713 | 39195 ft | 518 kts | 32° |
| 2026-05-06 01:36 | -27.66548 | -48.99997 | 39196 ft | 519 kts | 33° |
| 2026-05-06 01:37 | -27.60717 | -48.95186 | 39204 ft | 519 kts | 33° |
| 2026-05-06 01:37 | -27.54892 | -48.90344 | 39184 ft | 521 kts | 33° |
| 2026-05-06 01:38 | -27.49050 | -48.85521 | 39189 ft | 521 kts | 33° |
| 2026-05-06 01:38 | -27.43180 | -48.80712 | 39180 ft | 522 kts | 33° |
| 2026-05-06 01:39 | -27.37302 | -48.75912 | 39189 ft | 522 kts | 33° |
| 2026-05-06 01:39 | -27.31416 | -48.71103 | 39181 ft | 523 kts | 33° |
| 2026-05-06 01:40 | -27.25568 | -48.66322 | 39170 ft | 523 kts | 33° |
| 2026-05-06 01:40 | -27.19719 | -48.61444 | 39177 ft | 524 kts | 34° |
| 2026-05-06 01:41 | -27.13886 | -48.56557 | 39180 ft | 524 kts | 34° |
| 2026-05-06 01:41 | -27.07975 | -48.51762 | 39185 ft | 524 kts | 33° |
| 2026-05-06 01:42 | -27.02039 | -48.47018 | 39183 ft | 524 kts | 33° |
| 2026-05-06 01:42 | -26.96110 | -48.42263 | 39166 ft | 524 kts | 33° |
| 2026-05-06 01:43 | -26.90184 | -48.37482 | 39169 ft | 525 kts | 33° |
| 2026-05-06 01:43 | -26.84249 | -48.32701 | 39173 ft | 526 kts | 33° |
| 2026-05-06 01:44 | -26.78312 | -48.27926 | 39175 ft | 526 kts | 33° |
| 2026-05-06 01:44 | -26.72360 | -48.23156 | 39177 ft | 526 kts | 33° |
| 2026-05-06 01:45 | -26.66416 | -48.18387 | 39180 ft | 526 kts | 34° |
| 2026-05-06 01:45 | -26.60478 | -48.13602 | 39182 ft | 526 kts | 34° |
| 2026-05-06 01:46 | -26.54540 | -48.08822 | 39185 ft | 526 kts | 33° |
| 2026-05-06 01:46 | -26.48607 | -48.04059 | 39185 ft | 525 kts | 33° |
| 2026-05-06 01:47 | -26.42664 | -47.99301 | 39187 ft | 525 kts | 34° |
| 2026-05-06 01:47 | -26.36736 | -47.94552 | 39186 ft | 525 kts | 34° |
| 2026-05-06 01:48 | -26.30805 | -47.89807 | 39179 ft | 524 kts | 34° |
| 2026-05-06 01:48 | -26.24920 | -47.85108 | 39179 ft | 524 kts | 34° |
| 2026-05-06 01:49 | -26.18987 | -47.80374 | 39178 ft | 524 kts | 34° |
| 2026-05-06 01:49 | -26.13057 | -47.75655 | 39185 ft | 524 kts | 34° |
| 2026-05-06 01:50 | -26.07121 | -47.70946 | 39198 ft | 524 kts | 34° |
| 2026-05-06 01:50 | -26.01198 | -47.66245 | 39189 ft | 523 kts | 34° |
| 2026-05-06 01:51 | -25.95633 | -47.61828 | 39163 ft | 523 kts | 34° |
| 2026-05-06 01:51 | -25.89702 | -47.57120 | 39185 ft | 524 kts | 34° |
| 2026-05-06 01:52 | -25.83774 | -47.52431 | 39188 ft | 523 kts | 34° |
| 2026-05-06 01:52 | -25.77840 | -47.47748 | 39187 ft | 523 kts | 34° |
| 2026-05-06 01:53 | -25.71918 | -47.43070 | 39187 ft | 523 kts | 34° |
| 2026-05-06 01:53 | -25.65989 | -47.38395 | 39179 ft | 523 kts | 34° |
| 2026-05-06 01:54 | -25.60063 | -47.33729 | 39175 ft | 523 kts | 34° |
| 2026-05-06 01:54 | -25.54129 | -47.29061 | 39181 ft | 523 kts | 34° |
| 2026-05-06 01:55 | -25.48199 | -47.24407 | 39180 ft | 523 kts | 34° |
| 2026-05-06 01:55 | -25.42264 | -47.19745 | 39178 ft | 523 kts | 34° |
| 2026-05-06 01:56 | -25.36336 | -47.15093 | 38782 ft | 521 kts | 34° |
| 2026-05-06 01:56 | -25.33360 | -47.12761 | 37760 ft | 527 kts | 34° |
| 2026-05-06 01:56 | -25.30375 | -47.10433 | 37106 ft | 524 kts | 34° |
| 2026-05-06 01:57 | -25.27387 | -47.08105 | 36304 ft | 525 kts | 34° |
| 2026-05-06 01:57 | -25.24415 | -47.05789 | 35695 ft | 521 kts | 34° |
| 2026-05-06 01:57 | -25.21465 | -47.03486 | 35061 ft | 518 kts | 34° |
| 2026-05-06 01:57 | -25.18539 | -47.01199 | 34447 ft | 514 kts | 34° |
| 2026-05-06 01:58 | -25.15631 | -46.98927 | 33863 ft | 509 kts | 34° |
| 2026-05-06 01:58 | -25.12766 | -46.96749 | 33273 ft | 504 kts | 32° |
| 2026-05-06 01:58 | -25.09823 | -46.94688 | 32687 ft | 498 kts | 30° |
| 2026-05-06 01:58 | -25.06862 | -46.92757 | 32099 ft | 493 kts | 28° |
| 2026-05-06 01:59 | -25.03895 | -46.90897 | 31503 ft | 488 kts | 28° |
| 2026-05-06 01:59 | -25.00950 | -46.89063 | 30930 ft | 484 kts | 28° |
| 2026-05-06 01:59 | -24.98038 | -46.87228 | 30378 ft | 480 kts | 28° |
| 2026-05-06 01:59 | -24.95172 | -46.85386 | 29821 ft | 475 kts | 29° |
| 2026-05-06 02:00 | -24.92337 | -46.83532 | 29205 ft | 471 kts | 30° |
| 2026-05-06 02:00 | -24.89548 | -46.81691 | 28666 ft | 465 kts | 30° |
| 2026-05-06 02:00 | -24.86789 | -46.79872 | 28167 ft | 459 kts | 30° |
| 2026-05-06 02:00 | -24.84075 | -46.78086 | 27690 ft | 452 kts | 30° |
| 2026-05-06 02:01 | -24.81390 | -46.76324 | 27214 ft | 446 kts | 30° |
| 2026-05-06 02:01 | -24.78739 | -46.74591 | 26738 ft | 440 kts | 30° |
| 2026-05-06 02:01 | -24.76120 | -46.72886 | 26282 ft | 434 kts | 30° |
| 2026-05-06 02:01 | -24.73534 | -46.71203 | 25806 ft | 429 kts | 30° |
| 2026-05-06 02:02 | -24.71144 | -46.69649 | 25359 ft | 425 kts | 30° |
| 2026-05-06 02:02 | -24.68609 | -46.68002 | 24866 ft | 421 kts | 30° |
| 2026-05-06 02:02 | -24.66105 | -46.66374 | 24370 ft | 418 kts | 30° |
| 2026-05-06 02:02 | -24.63613 | -46.64753 | 23869 ft | 415 kts | 29° |
| 2026-05-06 02:03 | -24.61019 | -46.63409 | 23311 ft | 410 kts | 18° |
| 2026-05-06 02:03 | -24.58273 | -46.62681 | 22854 ft | 402 kts | 6° |
| 2026-05-06 02:03 | -24.55513 | -46.62534 | 22467 ft | 393 kts | 358° |
| 2026-05-06 02:03 | -24.52795 | -46.62535 | 22086 ft | 388 kts | 358° |
| 2026-05-06 02:04 | -24.50118 | -46.62540 | 21693 ft | 382 kts | 358° |
| 2026-05-06 02:04 | -24.47480 | -46.62547 | 21320 ft | 376 kts | 358° |
| 2026-05-06 02:04 | -24.44881 | -46.62553 | 20948 ft | 371 kts | 358° |
| 2026-05-06 02:04 | -24.42317 | -46.62560 | 20578 ft | 366 kts | 358° |
| 2026-05-06 02:05 | -24.39780 | -46.62565 | 20218 ft | 363 kts | 358° |
| 2026-05-06 02:05 | -24.37261 | -46.62567 | 19801 ft | 361 kts | 359° |
| 2026-05-06 02:05 | -24.34792 | -46.62567 | 19373 ft | 358 kts | 359° |
| 2026-05-06 02:05 | -24.32310 | -46.62569 | 18941 ft | 355 kts | 359° |
| 2026-05-06 02:06 | -24.29847 | -46.62570 | 18518 ft | 353 kts | 359° |
| 2026-05-06 02:06 | -24.27408 | -46.62570 | 18056 ft | 350 kts | 359° |
| 2026-05-06 02:06 | -24.24984 | -46.62570 | 17634 ft | 347 kts | 359° |
| 2026-05-06 02:06 | -24.22576 | -46.62570 | 17220 ft | 345 kts | 359° |
| 2026-05-06 02:07 | -24.20184 | -46.62574 | 16814 ft | 343 kts | 359° |
| 2026-05-06 02:07 | -24.17809 | -46.62577 | 16394 ft | 340 kts | 360° |
| 2026-05-06 02:07 | -24.15450 | -46.62577 | 15994 ft | 338 kts | 360° |
| 2026-05-06 02:07 | -24.13107 | -46.62577 | 15590 ft | 336 kts | 360° |
| 2026-05-06 02:08 | -24.10780 | -46.62578 | 15203 ft | 333 kts | 0° |
| 2026-05-06 02:08 | -24.08467 | -46.62579 | 14804 ft | 331 kts | 0° |
| 2026-05-06 02:08 | -24.06169 | -46.62579 | 14407 ft | 329 kts | 0° |
| 2026-05-06 02:08 | -24.03888 | -46.62579 | 14010 ft | 327 kts | 0° |
| 2026-05-06 02:09 | -24.01620 | -46.62579 | 13594 ft | 325 kts | 0° |
| 2026-05-06 02:09 | -23.99363 | -46.62580 | 13202 ft | 323 kts | 0° |
| 2026-05-06 02:09 | -23.97119 | -46.62582 | 12821 ft | 321 kts | 0° |
| 2026-05-06 02:09 | -23.94898 | -46.62585 | 12428 ft | 318 kts | 0° |
| 2026-05-06 02:10 | -23.92692 | -46.62587 | 12058 ft | 316 kts | 0° |
| 2026-05-06 02:10 | -23.90502 | -46.62591 | 11708 ft | 313 kts | 0° |
| 2026-05-06 02:10 | -23.88332 | -46.62592 | 11348 ft | 311 kts | 0° |
| 2026-05-06 02:10 | -23.86200 | -46.62828 | 10992 ft | 306 kts | 347° |
| 2026-05-06 02:11 | -23.84225 | -46.63621 | 10627 ft | 301 kts | 332° |
| 2026-05-06 02:11 | -23.82461 | -46.64816 | 10276 ft | 298 kts | 327° |
| 2026-05-06 02:11 | -23.80721 | -46.66031 | 9906 ft | 296 kts | 328° |
| 2026-05-06 02:11 | -23.78986 | -46.67234 | 9541 ft | 295 kts | 328° |
| 2026-05-06 02:12 | -23.77260 | -46.68431 | 9282 ft | 293 kts | 328° |
| 2026-05-06 02:12 | -23.75537 | -46.69625 | 9286 ft | 293 kts | 328° |
| 2026-05-06 02:12 | -23.73815 | -46.70818 | 9293 ft | 294 kts | 329° |
| 2026-05-06 02:12 | -23.72109 | -46.71997 | 9296 ft | 294 kts | 328° |
| 2026-05-06 02:13 | -23.70379 | -46.73197 | 8926 ft | 295 kts | 328° |
| 2026-05-06 02:13 | -23.68646 | -46.74398 | 8403 ft | 293 kts | 328° |
| 2026-05-06 02:13 | -23.66925 | -46.75589 | 7880 ft | 291 kts | 329° |
| 2026-05-06 02:13 | -23.65232 | -46.76761 | 7481 ft | 285 kts | 329° |
| 2026-05-06 02:14 | -23.63580 | -46.77906 | 7104 ft | 278 kts | 329° |
| 2026-05-06 02:14 | -23.61964 | -46.79024 | 6712 ft | 273 kts | 329° |
| 2026-05-06 02:14 | -23.60378 | -46.80121 | 6315 ft | 267 kts | 329° |
| 2026-05-06 02:14 | -23.58826 | -46.81188 | 5934 ft | 261 kts | 332° |
| 2026-05-06 02:15 | -23.57144 | -46.81716 | 5574 ft | 248 kts | 6° |
| 2026-05-06 02:15 | -23.55634 | -46.81059 | 5348 ft | 228 kts | 45° |
| 2026-05-06 02:15 | -23.54716 | -46.79739 | 5225 ft | 212 kts | 59° |
| 2026-05-06 02:15 | -23.53944 | -46.78431 | 5140 ft | 201 kts | 59° |
| 2026-05-06 02:16 | -23.53205 | -46.77170 | 5086 ft | 192 kts | 59° |
| 2026-05-06 02:16 | -23.52530 | -46.75998 | 4984 ft | 175 kts | 63° |
| 2026-05-06 02:16 | -23.52205 | -46.74770 | 4833 ft | 165 kts | 87° |
| 2026-05-06 02:16 | -23.52355 | -46.73557 | 4740 ft | 161 kts | 109° |
| 2026-05-06 02:17 | -23.52903 | -46.72533 | 4595 ft | 154 kts | 130° |
| 2026-05-06 02:17 | -23.53735 | -46.71822 | 4440 ft | 151 kts | 144° |
| 2026-05-06 02:17 | -23.54617 | -46.71213 | 4266 ft | 149 kts | 144° |
| 2026-05-06 02:17 | -23.55481 | -46.70617 | 4120 ft | 145 kts | 144° |
| 2026-05-06 02:18 | -23.56320 | -46.70037 | 3918 ft | 142 kts | 144° |
| 2026-05-06 02:18 | -23.57150 | -46.69467 | 3763 ft | 141 kts | 144° |
| 2026-05-06 02:18 | -23.57979 | -46.68904 | 3595 ft | 140 kts | 143° |
| 2026-05-06 02:18 | -23.58805 | -46.68336 | 3424 ft | 141 kts | 145° |
| 2026-05-06 02:19 | -23.59638 | -46.67754 | 3208 ft | 143 kts | 145° |
| 2026-05-06 02:19 | -23.60482 | -46.67164 | 3018 ft | 144 kts | 146° |
| 2026-05-06 02:19 | -23.61331 | -46.66576 | 2817 ft | 145 kts | 147° |
| 2026-05-06 02:19 | -23.62176 | -46.65987 | 2617 ft | 143 kts | 146° |
| 2026-05-06 02:20 | -23.63091 | -46.65364 | 2610 ft | 13 kts | 174° |
| 2026-05-06 02:20 | -23.63163 | -46.65388 | 2605 ft | 8 kts | 219° |
| 2026-05-06 02:20 | -23.63154 | -46.65451 | 2602 ft | 10 kts | 316° |
| 2026-05-06 02:21 | -23.63102 | -46.65490 | 2602 ft | 8 kts | 328° |
| 2026-05-06 02:21 | -23.63052 | -46.65515 | 2602 ft | 8 kts | 349° |
| 2026-05-06 02:21 | -23.62993 | -46.65530 | 2603 ft | 9 kts | 335° |
| 2026-05-06 02:21 | -23.62937 | -46.65568 | 2603 ft | 10 kts | 326° |
| 2026-05-06 02:22 | -23.62891 | -46.65604 | 2603 ft | 6 kts | 306° |
| 2026-05-06 02:22 | -23.62901 | -46.65651 | 2601 ft | 7 kts | 239° |
| 2026-05-06 02:22 | -23.62912 | -46.65682 | 2601 ft | 3 kts | 277° |
| 2026-05-06 02:22 | -23.62897 | -46.65698 | 2601 ft | 3 kts | 323° |
| 2026-05-06 02:23 | -23.62885 | -46.65707 | 2601 ft | 2 kts | 325° |
| 2026-05-06 02:23 | -23.62883 | -46.65708 | 2601 ft | 0 kts | 326° |